sensor_id;sensor_type;location;lat;lon;timestamp;pressure;altitude;pressure_sealevel;temperature
70533;BMP180;58088;51.186;17.130;2023-05-10T00:00:28;100385.40;;;12.70
70533;BMP180;58088;51.186;17.130;2023-05-10T00:02:55;100389.80;;;12.60
70533;BMP180;58088;51.186;17.130;2023-05-10T00:05:21;100381.60;;;12.60
70533;BMP180;58088;51.186;17.130;2023-05-10T00:07:47;100384.40;;;12.60
70533;BMP180;58088;51.186;17.130;2023-05-10T00:10:13;100373.00;;;12.50
70533;BMP180;58088;51.186;17.130;2023-05-10T00:12:40;100368.20;;;12.50
70533;BMP180;58088;51.186;17.130;2023-05-10T00:15:08;100371.40;;;12.40
70533;BMP180;58088;51.186;17.130;2023-05-10T00:17:35;100373.00;;;12.40
70533;BMP180;58088;51.186;17.130;2023-05-10T00:20:01;100375.40;;;12.30
70533;BMP180;58088;51.186;17.130;2023-05-10T00:22:28;100371.40;;;12.30
70533;BMP180;58088;51.186;17.130;2023-05-10T00:24:54;100372.00;;;12.20
70533;BMP180;58088;51.186;17.130;2023-05-10T00:27:20;100373.20;;;12.20
70533;BMP180;58088;51.186;17.130;2023-05-10T00:29:46;100369.00;;;12.20
70533;BMP180;58088;51.186;17.130;2023-05-10T00:32:12;100368.00;;;12.12
70533;BMP180;58088;51.186;17.130;2023-05-10T00:34:39;100368.80;;;12.10
70533;BMP180;58088;51.186;17.130;2023-05-10T00:37:06;100375.80;;;12.10
70533;BMP180;58088;51.186;17.130;2023-05-10T00:39:32;100369.60;;;12.00
70533;BMP180;58088;51.186;17.130;2023-05-10T00:41:58;100364.80;;;12.00
70533;BMP180;58088;51.186;17.130;2023-05-10T00:44:26;100365.60;;;12.00
70533;BMP180;58088;51.186;17.130;2023-05-10T00:46:53;100363.80;;;11.90
70533;BMP180;58088;51.186;17.130;2023-05-10T00:49:21;100357.60;;;11.90
70533;BMP180;58088;51.186;17.130;2023-05-10T00:51:48;100359.60;;;11.88
70533;BMP180;58088;51.186;17.130;2023-05-10T00:54:16;100351.80;;;11.82
70533;BMP180;58088;51.186;17.130;2023-05-10T00:56:42;100354.00;;;11.80
70533;BMP180;58088;51.186;17.130;2023-05-10T00:59:18;100354.80;;;11.80
70533;BMP180;58088;51.186;17.130;2023-05-10T01:01:45;100350.60;;;11.70
70533;BMP180;58088;51.186;17.130;2023-05-10T01:04:14;100346.80;;;11.70
70533;BMP180;58088;51.186;17.130;2023-05-10T01:06:41;100354.20;;;11.66
70533;BMP180;58088;51.186;17.130;2023-05-10T01:09:08;100348.20;;;11.60
70533;BMP180;58088;51.186;17.130;2023-05-10T01:11:39;100349.00;;;11.50
70533;BMP180;58088;51.186;17.130;2023-05-10T01:14:06;100348.60;;;11.50
70533;BMP180;58088;51.186;17.130;2023-05-10T01:16:38;100346.00;;;11.40
70533;BMP180;58088;51.186;17.130;2023-05-10T01:19:28;100340.20;;;11.30
70533;BMP180;58088;51.186;17.130;2023-05-10T01:22:33;100342.60;;;11.20
70533;BMP180;58088;51.186;17.130;2023-05-10T01:34:23;100338.40;;;10.90
70533;BMP180;58088;51.186;17.130;2023-05-10T01:37:13;100338.60;;;10.80
70533;BMP180;58088;51.186;17.130;2023-05-10T01:40:08;100344.80;;;10.80
70533;BMP180;58088;51.186;17.130;2023-05-10T01:42:49;100341.20;;;10.70
70533;BMP180;58088;51.186;17.130;2023-05-10T01:45:58;100345.60;;;10.60
70533;BMP180;58088;51.186;17.130;2023-05-10T01:48:28;100341.60;;;10.52
70533;BMP180;58088;51.186;17.130;2023-05-10T01:50:58;100347.80;;;10.50
70533;BMP180;58088;51.186;17.130;2023-05-10T01:53:30;100342.00;;;10.40
70533;BMP180;58088;51.186;17.130;2023-05-10T01:56:03;100339.80;;;10.40
70533;BMP180;58088;51.186;17.130;2023-05-10T01:58:32;100339.00;;;10.30
70533;BMP180;58088;51.186;17.130;2023-05-10T02:04:58;100329.80;;;10.20
70533;BMP180;58088;51.186;17.130;2023-05-10T02:07:28;100329.20;;;10.20
70533;BMP180;58088;51.186;17.130;2023-05-10T02:09:55;100328.40;;;10.10
70533;BMP180;58088;51.186;17.130;2023-05-10T02:12:24;100331.80;;;10.00
70533;BMP180;58088;51.186;17.130;2023-05-10T02:14:53;100333.20;;;10.00
70533;BMP180;58088;51.186;17.130;2023-05-10T02:17:22;100333.00;;;9.96
70533;BMP180;58088;51.186;17.130;2023-05-10T02:19:54;100330.20;;;9.90
70533;BMP180;58088;51.186;17.130;2023-05-10T02:22:28;100320.00;;;9.82
70533;BMP180;58088;51.186;17.130;2023-05-10T02:24:59;100322.60;;;9.80
70533;BMP180;58088;51.186;17.130;2023-05-10T02:27:30;100317.00;;;9.80
70533;BMP180;58088;51.186;17.130;2023-05-10T02:30:01;100318.40;;;9.70
70533;BMP180;58088;51.186;17.130;2023-05-10T02:32:29;100318.20;;;9.70
70533;BMP180;58088;51.186;17.130;2023-05-10T02:34:58;100317.80;;;9.70
70533;BMP180;58088;51.186;17.130;2023-05-10T02:37:31;100316.40;;;9.70
70533;BMP180;58088;51.186;17.130;2023-05-10T02:39:58;100317.80;;;9.70
70533;BMP180;58088;51.186;17.130;2023-05-10T02:42:29;100317.20;;;9.70
70533;BMP180;58088;51.186;17.130;2023-05-10T02:45:01;100325.40;;;9.70
70533;BMP180;58088;51.186;17.130;2023-05-10T02:47:31;100318.40;;;9.78
70533;BMP180;58088;51.186;17.130;2023-05-10T02:49:58;100314.80;;;9.78
70533;BMP180;58088;51.186;17.130;2023-05-10T02:52:30;100321.80;;;9.80
70533;BMP180;58088;51.186;17.130;2023-05-10T02:55:04;100316.00;;;9.80
70533;BMP180;58088;51.186;17.130;2023-05-10T02:57:34;100316.20;;;9.80
70533;BMP180;58088;51.186;17.130;2023-05-10T03:00:04;100317.60;;;9.90
70533;BMP180;58088;51.186;17.130;2023-05-10T03:02:30;100316.80;;;9.90
70533;BMP180;58088;51.186;17.130;2023-05-10T03:04:57;100319.80;;;9.90
70533;BMP180;58088;51.186;17.130;2023-05-10T03:07:23;100322.00;;;10.00
70533;BMP180;58088;51.186;17.130;2023-05-10T03:09:50;100316.40;;;10.00
70533;BMP180;58088;51.186;17.130;2023-05-10T03:12:41;100314.40;;;10.00
70533;BMP180;58088;51.186;17.130;2023-05-10T03:15:58;100309.40;;;10.10
70533;BMP180;58088;51.186;17.130;2023-05-10T03:18:40;100314.60;;;10.10
70533;BMP180;58088;51.186;17.130;2023-05-10T03:21:11;100314.60;;;10.16
70533;BMP180;58088;51.186;17.130;2023-05-10T03:23:46;100313.20;;;10.20
70533;BMP180;58088;51.186;17.130;2023-05-10T03:26:20;100312.20;;;10.20
70533;BMP180;58088;51.186;17.130;2023-05-10T03:28:50;100313.60;;;10.30
70533;BMP180;58088;51.186;17.130;2023-05-10T03:31:17;100320.40;;;10.40
70533;BMP180;58088;51.186;17.130;2023-05-10T03:33:49;100314.80;;;10.50
70533;BMP180;58088;51.186;17.130;2023-05-10T03:36:18;100315.60;;;10.82
70533;BMP180;58088;51.186;17.130;2023-05-10T03:38:45;100313.40;;;11.20
70533;BMP180;58088;51.186;17.130;2023-05-10T03:41:11;100306.00;;;11.52
70533;BMP180;58088;51.186;17.130;2023-05-10T03:43:38;100308.80;;;11.90
70533;BMP180;58088;51.186;17.130;2023-05-10T03:46:05;100312.40;;;12.20
70533;BMP180;58088;51.186;17.130;2023-05-10T03:48:32;100305.60;;;12.50
70533;BMP180;58088;51.186;17.130;2023-05-10T03:50:59;100303.00;;;12.88
70533;BMP180;58088;51.186;17.130;2023-05-10T03:53:25;100302.60;;;13.24
70533;BMP180;58088;51.186;17.130;2023-05-10T03:55:52;100302.00;;;13.64
70533;BMP180;58088;51.186;17.130;2023-05-10T03:58:19;100305.00;;;14.12
70533;BMP180;58088;51.186;17.130;2023-05-10T04:00:45;100302.80;;;14.50
70533;BMP180;58088;51.186;17.130;2023-05-10T04:03:13;100300.00;;;14.90
70533;BMP180;58088;51.186;17.130;2023-05-10T04:05:40;100297.40;;;15.38
70533;BMP180;58088;51.186;17.130;2023-05-10T04:08:06;100295.60;;;15.80
70533;BMP180;58088;51.186;17.130;2023-05-10T04:10:33;100299.20;;;16.20
70533;BMP180;58088;51.186;17.130;2023-05-10T04:12:59;100302.60;;;16.58
70533;BMP180;58088;51.186;17.130;2023-05-10T04:15:25;100304.60;;;17.00
70533;BMP180;58088;51.186;17.130;2023-05-10T04:17:51;100310.00;;;17.50
70533;BMP180;58088;51.186;17.130;2023-05-10T04:20:17;100305.00;;;17.88
70533;BMP180;58088;51.186;17.130;2023-05-10T04:22:43;100302.80;;;18.20
70533;BMP180;58088;51.186;17.130;2023-05-10T04:25:10;100303.20;;;18.40
70533;BMP180;58088;51.186;17.130;2023-05-10T04:27:36;100299.60;;;18.66
70533;BMP180;58088;51.186;17.130;2023-05-10T04:30:03;100301.20;;;18.96
70533;BMP180;58088;51.186;17.130;2023-05-10T04:32:29;100300.60;;;19.30
70533;BMP180;58088;51.186;17.130;2023-05-10T04:34:55;100305.20;;;19.46
70533;BMP180;58088;51.186;17.130;2023-05-10T04:37:21;100300.00;;;19.60
70533;BMP180;58088;51.186;17.130;2023-05-10T04:39:48;100299.20;;;19.60
70533;BMP180;58088;51.186;17.130;2023-05-10T04:42:14;100301.00;;;19.70
70533;BMP180;58088;51.186;17.130;2023-05-10T04:44:41;100306.00;;;19.88
70533;BMP180;58088;51.186;17.130;2023-05-10T04:47:07;100300.60;;;20.10
70533;BMP180;58088;51.186;17.130;2023-05-10T04:49:33;100302.80;;;20.34
70533;BMP180;58088;51.186;17.130;2023-05-10T04:51:59;100301.00;;;20.54
70533;BMP180;58088;51.186;17.130;2023-05-10T04:54:25;100308.60;;;20.86
70533;BMP180;58088;51.186;17.130;2023-05-10T04:56:51;100306.20;;;21.10
70533;BMP180;58088;51.186;17.130;2023-05-10T04:59:17;100307.60;;;21.24
70533;BMP180;58088;51.186;17.130;2023-05-10T05:01:43;100315.40;;;21.40
70533;BMP180;58088;51.186;17.130;2023-05-10T05:04:09;100313.80;;;21.44
70533;BMP180;58088;51.186;17.130;2023-05-10T05:06:47;100314.20;;;21.68
70533;BMP180;58088;51.186;17.130;2023-05-10T05:09:13;100308.00;;;21.70
70533;BMP180;58088;51.186;17.130;2023-05-10T05:11:39;100304.20;;;22.08
70533;BMP180;58088;51.186;17.130;2023-05-10T05:14:06;100314.80;;;22.10
70533;BMP180;58088;51.186;17.130;2023-05-10T05:16:32;100315.20;;;22.00
70533;BMP180;58088;51.186;17.130;2023-05-10T05:18:59;100313.60;;;22.34
70533;BMP180;58088;51.186;17.130;2023-05-10T05:21:26;100315.60;;;22.50
70533;BMP180;58088;51.186;17.130;2023-05-10T05:23:53;100311.20;;;22.40
70533;BMP180;58088;51.186;17.130;2023-05-10T05:26:19;100313.00;;;22.54
70533;BMP180;58088;51.186;17.130;2023-05-10T05:28:45;100310.80;;;22.72
70533;BMP180;58088;51.186;17.130;2023-05-10T05:31:11;100302.60;;;22.80
70533;BMP180;58088;51.186;17.130;2023-05-10T05:33:38;100303.00;;;23.10
70533;BMP180;58088;51.186;17.130;2023-05-10T05:36:05;100303.20;;;23.40
70533;BMP180;58088;51.186;17.130;2023-05-10T05:38:31;100309.40;;;23.30
70533;BMP180;58088;51.186;17.130;2023-05-10T05:40:58;100303.60;;;23.20
70533;BMP180;58088;51.186;17.130;2023-05-10T05:43:24;100304.20;;;23.32
70533;BMP180;58088;51.186;17.130;2023-05-10T05:45:52;100306.00;;;23.80
70533;BMP180;58088;51.186;17.130;2023-05-10T05:48:19;100308.20;;;23.70
70533;BMP180;58088;51.186;17.130;2023-05-10T05:50:45;100310.00;;;23.50
70533;BMP180;58088;51.186;17.130;2023-05-10T05:53:12;100307.00;;;23.56
70533;BMP180;58088;51.186;17.130;2023-05-10T05:55:38;100307.40;;;23.64
70533;BMP180;58088;51.186;17.130;2023-05-10T05:58:04;100311.40;;;23.70
70533;BMP180;58088;51.186;17.130;2023-05-10T06:00:31;100309.20;;;23.60
70533;BMP180;58088;51.186;17.130;2023-05-10T06:02:57;100306.40;;;23.80
70533;BMP180;58088;51.186;17.130;2023-05-10T06:05:23;100306.60;;;24.00
70533;BMP180;58088;51.186;17.130;2023-05-10T06:07:49;100311.40;;;24.16
70533;BMP180;58088;51.186;17.130;2023-05-10T06:10:15;100312.80;;;24.34
70533;BMP180;58088;51.186;17.130;2023-05-10T06:12:41;100311.60;;;24.30
70533;BMP180;58088;51.186;17.130;2023-05-10T06:15:09;100315.40;;;24.16
70533;BMP180;58088;51.186;17.130;2023-05-10T06:17:35;100315.00;;;23.92
70533;BMP180;58088;51.186;17.130;2023-05-10T06:20:02;100316.80;;;23.96
70533;BMP180;58088;51.186;17.130;2023-05-10T06:22:28;100322.60;;;24.08
70533;BMP180;58088;51.186;17.130;2023-05-10T06:24:54;100313.60;;;24.00
70533;BMP180;58088;51.186;17.130;2023-05-10T06:27:20;100320.00;;;24.08
70533;BMP180;58088;51.186;17.130;2023-05-10T06:29:47;100323.80;;;23.90
70533;BMP180;58088;51.186;17.130;2023-05-10T06:32:13;100320.20;;;23.80
70533;BMP180;58088;51.186;17.130;2023-05-10T06:34:39;100316.20;;;23.80
70533;BMP180;58088;51.186;17.130;2023-05-10T06:37:05;100313.20;;;23.90
70533;BMP180;58088;51.186;17.130;2023-05-10T06:39:31;100313.60;;;24.12
70533;BMP180;58088;51.186;17.130;2023-05-10T06:41:58;100315.60;;;24.20
70533;BMP180;58088;51.186;17.130;2023-05-10T06:44:28;100313.20;;;24.26
70533;BMP180;58088;51.186;17.130;2023-05-10T06:46:54;100312.60;;;23.90
70533;BMP180;58088;51.186;17.130;2023-05-10T06:49:21;100312.00;;;23.80
70533;BMP180;58088;51.186;17.130;2023-05-10T06:51:47;100311.20;;;23.72
70533;BMP180;58088;51.186;17.130;2023-05-10T06:54:14;100313.20;;;23.78
70533;BMP180;58088;51.186;17.130;2023-05-10T06:56:40;100308.40;;;23.50
70533;BMP180;58088;51.186;17.130;2023-05-10T06:59:06;100307.20;;;23.50
70533;BMP180;58088;51.186;17.130;2023-05-10T07:01:33;100309.20;;;23.42
70533;BMP180;58088;51.186;17.130;2023-05-10T07:03:59;100310.20;;;23.70
70533;BMP180;58088;51.186;17.130;2023-05-10T07:06:25;100310.40;;;23.82
70533;BMP180;58088;51.186;17.130;2023-05-10T07:08:51;100304.40;;;23.90
70533;BMP180;58088;51.186;17.130;2023-05-10T07:11:17;100305.00;;;24.10
70533;BMP180;58088;51.186;17.130;2023-05-10T07:13:43;100306.40;;;24.10
70533;BMP180;58088;51.186;17.130;2023-05-10T07:16:12;100310.20;;;24.20
70533;BMP180;58088;51.186;17.130;2023-05-10T07:18:38;100302.80;;;24.06
70533;BMP180;58088;51.186;17.130;2023-05-10T07:21:04;100300.60;;;23.88
70533;BMP180;58088;51.186;17.130;2023-05-10T07:23:30;100303.60;;;23.80
70533;BMP180;58088;51.186;17.130;2023-05-10T07:25:57;100303.40;;;23.70
70533;BMP180;58088;51.186;17.130;2023-05-10T07:28:24;100304.40;;;23.50
70533;BMP180;58088;51.186;17.130;2023-05-10T07:30:50;100301.60;;;23.52
70533;BMP180;58088;51.186;17.130;2023-05-10T07:33:16;100294.60;;;23.50
70533;BMP180;58088;51.186;17.130;2023-05-10T07:35:43;100290.80;;;23.30
70533;BMP180;58088;51.186;17.130;2023-05-10T07:38:09;100292.40;;;23.50
70533;BMP180;58088;51.186;17.130;2023-05-10T07:40:37;100282.80;;;23.46
70533;BMP180;58088;51.186;17.130;2023-05-10T07:43:04;100283.80;;;23.40
70533;BMP180;58088;51.186;17.130;2023-05-10T07:45:30;100283.60;;;23.40
70533;BMP180;58088;51.186;17.130;2023-05-10T07:47:56;100276.00;;;23.30
70533;BMP180;58088;51.186;17.130;2023-05-10T07:50:22;100283.40;;;23.40
70533;BMP180;58088;51.186;17.130;2023-05-10T07:52:49;100277.80;;;23.20
70533;BMP180;58088;51.186;17.130;2023-05-10T07:55:15;100276.00;;;23.38
70533;BMP180;58088;51.186;17.130;2023-05-10T07:57:42;100272.60;;;23.52
70533;BMP180;58088;51.186;17.130;2023-05-10T08:00:08;100274.20;;;23.54
70533;BMP180;58088;51.186;17.130;2023-05-10T08:02:41;100266.00;;;23.50
70533;BMP180;58088;51.186;17.130;2023-05-10T08:05:07;100272.00;;;23.50
70533;BMP180;58088;51.186;17.130;2023-05-10T08:07:34;100269.20;;;23.40
70533;BMP180;58088;51.186;17.130;2023-05-10T08:10:00;100265.80;;;23.22
70533;BMP180;58088;51.186;17.130;2023-05-10T08:12:26;100264.00;;;23.10
70533;BMP180;58088;51.186;17.130;2023-05-10T08:14:52;100270.60;;;23.10
70533;BMP180;58088;51.186;17.130;2023-05-10T08:17:18;100263.00;;;23.10
70533;BMP180;58088;51.186;17.130;2023-05-10T08:19:45;100269.00;;;23.10
70533;BMP180;58088;51.186;17.130;2023-05-10T08:22:11;100260.80;;;23.20
70533;BMP180;58088;51.186;17.130;2023-05-10T08:24:38;100261.80;;;23.34
70533;BMP180;58088;51.186;17.130;2023-05-10T08:27:05;100266.20;;;23.46
70533;BMP180;58088;51.186;17.130;2023-05-10T08:29:31;100264.00;;;23.60
70533;BMP180;58088;51.186;17.130;2023-05-10T08:31:58;100270.80;;;23.70
70533;BMP180;58088;51.186;17.130;2023-05-10T08:34:24;100272.00;;;23.76
70533;BMP180;58088;51.186;17.130;2023-05-10T08:36:51;100261.80;;;23.70
70533;BMP180;58088;51.186;17.130;2023-05-10T08:39:17;100265.00;;;23.90
70533;BMP180;58088;51.186;17.130;2023-05-10T08:41:45;100278.40;;;24.10
70533;BMP180;58088;51.186;17.130;2023-05-10T08:44:13;100268.60;;;23.62
70533;BMP180;58088;51.186;17.130;2023-05-10T08:46:45;100260.00;;;23.54
70533;BMP180;58088;51.186;17.130;2023-05-10T08:49:17;100256.00;;;23.40
70533;BMP180;58088;51.186;17.130;2023-05-10T08:51:54;100253.40;;;23.30
70533;BMP180;58088;51.186;17.130;2023-05-10T08:54:22;100259.40;;;23.40
70533;BMP180;58088;51.186;17.130;2023-05-10T08:56:49;100254.60;;;23.46
70533;BMP180;58088;51.186;17.130;2023-05-10T08:59:15;100259.80;;;23.58
70533;BMP180;58088;51.186;17.130;2023-05-10T09:01:44;100260.20;;;23.50
70533;BMP180;58088;51.186;17.130;2023-05-10T09:04:12;100250.40;;;23.50
70533;BMP180;58088;51.186;17.130;2023-05-10T09:06:39;100258.40;;;23.44
70533;BMP180;58088;51.186;17.130;2023-05-10T09:09:06;100257.80;;;23.30
70533;BMP180;58088;51.186;17.130;2023-05-10T09:11:32;100248.40;;;23.14
70533;BMP180;58088;51.186;17.130;2023-05-10T09:13:58;100250.80;;;23.20
70533;BMP180;58088;51.186;17.130;2023-05-10T09:16:24;100249.20;;;23.50
70533;BMP180;58088;51.186;17.130;2023-05-10T09:18:51;100253.40;;;23.60
70533;BMP180;58088;51.186;17.130;2023-05-10T09:21:19;100249.80;;;23.80
70533;BMP180;58088;51.186;17.130;2023-05-10T09:23:47;100255.80;;;23.90
70533;BMP180;58088;51.186;17.130;2023-05-10T09:26:16;100261.00;;;24.04
70533;BMP180;58088;51.186;17.130;2023-05-10T09:28:59;100258.60;;;24.10
70533;BMP180;58088;51.186;17.130;2023-05-10T09:34:20;100262.40;;;23.90
70533;BMP180;58088;51.186;17.130;2023-05-10T09:37:04;100268.00;;;23.90
70533;BMP180;58088;51.186;17.130;2023-05-10T09:39:36;100268.60;;;23.94
70533;BMP180;58088;51.186;17.130;2023-05-10T09:42:08;100269.00;;;24.10
70533;BMP180;58088;51.186;17.130;2023-05-10T09:44:35;100269.40;;;24.20
70533;BMP180;58088;51.186;17.130;2023-05-10T09:47:02;100263.00;;;24.20
70533;BMP180;58088;51.186;17.130;2023-05-10T09:49:29;100263.20;;;24.20
70533;BMP180;58088;51.186;17.130;2023-05-10T09:52:08;100267.20;;;24.30
70533;BMP180;58088;51.186;17.130;2023-05-10T09:54:34;100261.80;;;24.30
70533;BMP180;58088;51.186;17.130;2023-05-10T09:57:01;100259.20;;;24.40
70533;BMP180;58088;51.186;17.130;2023-05-10T09:59:28;100266.80;;;24.40
70533;BMP180;58088;51.186;17.130;2023-05-10T10:01:57;100261.20;;;24.30
70533;BMP180;58088;51.186;17.130;2023-05-10T10:04:24;100257.40;;;24.30
70533;BMP180;58088;51.186;17.130;2023-05-10T10:07:04;100253.80;;;24.32
70533;BMP180;58088;51.186;17.130;2023-05-10T10:09:31;100254.40;;;24.30
70533;BMP180;58088;51.186;17.130;2023-05-10T10:12:02;100253.60;;;24.30
70533;BMP180;58088;51.186;17.130;2023-05-10T10:14:29;100249.80;;;24.24
70533;BMP180;58088;51.186;17.130;2023-05-10T10:16:56;100241.00;;;24.30
70533;BMP180;58088;51.186;17.130;2023-05-10T10:19:22;100242.80;;;24.34
70533;BMP180;58088;51.186;17.130;2023-05-10T10:21:50;100245.00;;;24.20
70533;BMP180;58088;51.186;17.130;2023-05-10T10:24:16;100243.40;;;24.10
70533;BMP180;58088;51.186;17.130;2023-05-10T10:26:43;100235.00;;;24.00
70533;BMP180;58088;51.186;17.130;2023-05-10T10:29:23;100237.00;;;24.00
70533;BMP180;58088;51.186;17.130;2023-05-10T10:32:07;100230.20;;;24.00
70533;BMP180;58088;51.186;17.130;2023-05-10T10:34:36;100229.20;;;24.20
70533;BMP180;58088;51.186;17.130;2023-05-10T10:37:05;100229.60;;;24.16
70533;BMP180;58088;51.186;17.130;2023-05-10T10:39:32;100235.80;;;23.90
70533;BMP180;58088;51.186;17.130;2023-05-10T10:41:59;100230.40;;;23.70
70533;BMP180;58088;51.186;17.130;2023-05-10T10:44:33;100228.00;;;23.76
70533;BMP180;58088;51.186;17.130;2023-05-10T10:52:28;100231.00;;;24.20
70533;BMP180;58088;51.186;17.130;2023-05-10T11:00:23;100231.60;;;24.50
70533;BMP180;58088;51.186;17.130;2023-05-10T11:08:28;100223.60;;;24.20
70533;BMP180;58088;51.186;17.130;2023-05-10T11:13:39;100228.40;;;24.40
70533;BMP180;58088;51.186;17.130;2023-05-10T11:16:18;100221.60;;;24.30
70533;BMP180;58088;51.186;17.130;2023-05-10T11:19:06;100212.20;;;24.50
70533;BMP180;58088;51.186;17.130;2023-05-10T11:21:50;100216.00;;;24.66
70533;BMP180;58088;51.186;17.130;2023-05-10T11:24:25;100218.60;;;24.60
70533;BMP180;58088;51.186;17.130;2023-05-10T11:26:53;100213.80;;;24.56
70533;BMP180;58088;51.186;17.130;2023-05-10T11:29:20;100213.20;;;24.40
70533;BMP180;58088;51.186;17.130;2023-05-10T11:31:48;100198.00;;;24.30
70533;BMP180;58088;51.186;17.130;2023-05-10T11:34:30;100212.40;;;24.30
70533;BMP180;58088;51.186;17.130;2023-05-10T11:37:00;100204.60;;;24.40
70533;BMP180;58088;51.186;17.130;2023-05-10T11:39:29;100204.00;;;24.66
70533;BMP180;58088;51.186;17.130;2023-05-10T11:41:57;100205.40;;;24.60
70533;BMP180;58088;51.186;17.130;2023-05-10T11:44:30;100211.40;;;24.42
70533;BMP180;58088;51.186;17.130;2023-05-10T11:47:01;100216.80;;;24.30
70533;BMP180;58088;51.186;17.130;2023-05-10T11:49:27;100199.20;;;24.30
70533;BMP180;58088;51.186;17.130;2023-05-10T11:52:07;100193.40;;;24.40
70533;BMP180;58088;51.186;17.130;2023-05-10T11:54:33;100199.60;;;24.50
70533;BMP180;58088;51.186;17.130;2023-05-10T11:57:00;100214.00;;;24.40
70533;BMP180;58088;51.186;17.130;2023-05-10T11:59:30;100200.20;;;24.14
70533;BMP180;58088;51.186;17.130;2023-05-10T12:01:57;100198.20;;;24.10
70533;BMP180;58088;51.186;17.130;2023-05-10T12:04:24;100210.20;;;24.20
70533;BMP180;58088;51.186;17.130;2023-05-10T12:06:51;100202.40;;;24.00
70533;BMP180;58088;51.186;17.130;2023-05-10T12:09:17;100202.60;;;24.10
70533;BMP180;58088;51.186;17.130;2023-05-10T12:11:43;100201.40;;;24.00
70533;BMP180;58088;51.186;17.130;2023-05-10T12:14:09;100197.80;;;24.10
70533;BMP180;58088;51.186;17.130;2023-05-10T12:16:36;100208.00;;;24.10
70533;BMP180;58088;51.186;17.130;2023-05-10T12:19:02;100208.20;;;24.00
70533;BMP180;58088;51.186;17.130;2023-05-10T12:21:29;100208.20;;;24.10
70533;BMP180;58088;51.186;17.130;2023-05-10T12:24:03;100203.00;;;24.10
70533;BMP180;58088;51.186;17.130;2023-05-10T12:26:30;100206.20;;;23.90
70533;BMP180;58088;51.186;17.130;2023-05-10T12:29:18;100205.00;;;23.70
70533;BMP180;58088;51.186;17.130;2023-05-10T12:31:59;100201.40;;;23.60
70533;BMP180;58088;51.186;17.130;2023-05-10T12:34:34;100205.60;;;23.66
70533;BMP180;58088;51.186;17.130;2023-05-10T12:37:02;100199.00;;;23.70
70533;BMP180;58088;51.186;17.130;2023-05-10T12:39:44;100206.20;;;23.70
70533;BMP180;58088;51.186;17.130;2023-05-10T12:42:10;100202.60;;;23.72
70533;BMP180;58088;51.186;17.130;2023-05-10T12:44:37;100209.60;;;23.74
70533;BMP180;58088;51.186;17.130;2023-05-10T12:47:03;100202.20;;;23.56
70533;BMP180;58088;51.186;17.130;2023-05-10T12:49:30;100197.20;;;23.40
70533;BMP180;58088;51.186;17.130;2023-05-10T12:51:56;100197.40;;;23.40
70533;BMP180;58088;51.186;17.130;2023-05-10T12:54:22;100192.00;;;23.58
70533;BMP180;58088;51.186;17.130;2023-05-10T12:56:48;100196.00;;;23.70
70533;BMP180;58088;51.186;17.130;2023-05-10T12:59:14;100195.00;;;23.90
70533;BMP180;58088;51.186;17.130;2023-05-10T13:01:41;100193.20;;;24.00
70533;BMP180;58088;51.186;17.130;2023-05-10T13:04:07;100201.20;;;24.00
70533;BMP180;58088;51.186;17.130;2023-05-10T13:06:33;100199.80;;;23.90
70533;BMP180;58088;51.186;17.130;2023-05-10T13:08:59;100200.60;;;23.80
70533;BMP180;58088;51.186;17.130;2023-05-10T13:11:25;100188.60;;;23.60
70533;BMP180;58088;51.186;17.130;2023-05-10T13:13:52;100197.00;;;23.50
70533;BMP180;58088;51.186;17.130;2023-05-10T13:16:18;100189.60;;;23.50
70533;BMP180;58088;51.186;17.130;2023-05-10T13:18:44;100192.00;;;23.70
70533;BMP180;58088;51.186;17.130;2023-05-10T13:21:10;100192.40;;;23.70
70533;BMP180;58088;51.186;17.130;2023-05-10T13:23:37;100194.00;;;23.70
70533;BMP180;58088;51.186;17.130;2023-05-10T13:26:03;100197.60;;;23.62
70533;BMP180;58088;51.186;17.130;2023-05-10T13:28:29;100188.60;;;23.50
70533;BMP180;58088;51.186;17.130;2023-05-10T13:30:55;100183.00;;;23.60
70533;BMP180;58088;51.186;17.130;2023-05-10T13:33:21;100178.20;;;23.60
70533;BMP180;58088;51.186;17.130;2023-05-10T13:35:48;100194.20;;;23.70
70533;BMP180;58088;51.186;17.130;2023-05-10T13:38:14;100184.80;;;23.72
70533;BMP180;58088;51.186;17.130;2023-05-10T13:40:40;100178.60;;;23.80
70533;BMP180;58088;51.186;17.130;2023-05-10T13:43:07;100180.40;;;23.90
70533;BMP180;58088;51.186;17.130;2023-05-10T13:45:33;100184.00;;;24.00
70533;BMP180;58088;51.186;17.130;2023-05-10T13:47:59;100174.00;;;24.00
70533;BMP180;58088;51.186;17.130;2023-05-10T13:50:25;100177.00;;;23.90
70533;BMP180;58088;51.186;17.130;2023-05-10T13:52:53;100169.60;;;23.90
70533;BMP180;58088;51.186;17.130;2023-05-10T13:55:19;100171.80;;;23.96
70533;BMP180;58088;51.186;17.130;2023-05-10T13:57:45;100162.60;;;23.90
70533;BMP180;58088;51.186;17.130;2023-05-10T14:00:12;100162.80;;;24.00
70533;BMP180;58088;51.186;17.130;2023-05-10T14:02:39;100163.40;;;23.94
70533;BMP180;58088;51.186;17.130;2023-05-10T14:05:05;100157.60;;;23.90
70533;BMP180;58088;51.186;17.130;2023-05-10T14:07:31;100156.60;;;23.90
70533;BMP180;58088;51.186;17.130;2023-05-10T14:09:58;100162.80;;;23.80
70533;BMP180;58088;51.186;17.130;2023-05-10T14:12:24;100157.40;;;23.72
70533;BMP180;58088;51.186;17.130;2023-05-10T14:14:50;100155.00;;;23.70
70533;BMP180;58088;51.186;17.130;2023-05-10T14:17:17;100154.40;;;23.70
70533;BMP180;58088;51.186;17.130;2023-05-10T14:19:44;100161.80;;;23.70
70533;BMP180;58088;51.186;17.130;2023-05-10T14:22:10;100161.60;;;23.74
70533;BMP180;58088;51.186;17.130;2023-05-10T14:24:38;100156.00;;;23.80
70533;BMP180;58088;51.186;17.130;2023-05-10T14:27:04;100154.60;;;23.90